sensor_id;sensor_type;location;lat;lon;timestamp;pressure;altitude;pressure_sealevel;temperature;humidity
50087;BME280;35967;50.718;7.050;2024-01-07T00:08:48;100648.00;;;3.05;100.00
50087;BME280;35967;50.718;7.050;2024-01-07T00:18:53;100669.13;;;2.96;100.00
50087;BME280;35967;50.718;7.050;2024-01-07T00:28:56;100673.47;;;3.06;100.00
50087;BME280;35967;50.718;7.050;2024-01-07T00:39:00;100678.19;;;2.69;100.00
50087;BME280;35967;50.718;7.050;2024-01-07T00:49:04;100676.66;;;2.85;100.00
50087;BME280;35967;50.718;7.050;2024-01-07T00:59:13;100678.50;;;3.03;100.00
50087;BME280;35967;50.718;7.050;2024-01-07T01:09:17;100693.81;;;3.06;100.00
50087;BME280;35967;50.718;7.050;2024-01-07T01:19:21;100703.84;;;2.91;100.00
50087;BME280;35967;50.718;7.050;2024-01-07T01:29:25;100703.84;;;2.92;100.00
50087;BME280;35967;50.718;7.050;2024-01-07T01:39:29;100720.00;;;2.97;100.00
50087;BME280;35967;50.718;7.050;2024-01-07T01:49:32;100721.69;;;2.95;100.00
50087;BME280;35967;50.718;7.050;2024-01-07T01:59:39;100727.50;;;2.83;100.00
50087;BME280;35967;50.718;7.050;2024-01-07T02:09:42;100738.72;;;3.06;100.00
50087;BME280;35967;50.718;7.050;2024-01-07T02:19:46;100742.03;;;2.98;100.00
50087;BME280;35967;50.718;7.050;2024-01-07T02:29:51;100748.09;;;3.08;100.00
50087;BME280;35967;50.718;7.050;2024-01-07T02:39:54;100743.84;;;3.09;100.00
50087;BME280;35967;50.718;7.050;2024-01-07T02:50:05;100743.81;;;3.04;100.00
50087;BME280;35967;50.718;7.050;2024-01-07T03:00:09;100757.28;;;2.97;100.00
50087;BME280;35967;50.718;7.050;2024-01-07T03:10:14;100764.19;;;3.10;100.00
50087;BME280;35967;50.718;7.050;2024-01-07T03:20:17;100776.75;;;2.92;100.00
50087;BME280;35967;50.718;7.050;2024-01-07T03:30:21;100769.13;;;2.93;100.00
50087;BME280;35967;50.718;7.050;2024-01-07T03:40:25;100775.16;;;3.03;100.00
50087;BME280;35967;50.718;7.050;2024-01-07T03:50:29;100776.66;;;2.86;100.00
50087;BME280;35967;50.718;7.050;2024-01-07T04:00:34;100783.59;;;2.99;100.00
50087;BME280;35967;50.718;7.050;2024-01-07T04:10:38;100795.38;;;2.94;100.00
50087;BME280;35967;50.718;7.050;2024-01-07T04:20:41;100797.97;;;2.97;100.00
50087;BME280;35967;50.718;7.050;2024-01-07T04:30:46;100808.31;;;3.11;100.00
50087;BME280;35967;50.718;7.050;2024-01-07T04:40:51;100807.16;;;2.86;100.00
50087;BME280;35967;50.718;7.050;2024-01-07T04:50:55;100824.81;;;2.73;100.00
50087;BME280;35967;50.718;7.050;2024-01-07T05:00:59;100832.25;;;2.61;100.00
50087;BME280;35967;50.718;7.050;2024-01-07T05:11:03;100832.38;;;2.67;100.00
50087;BME280;35967;50.718;7.050;2024-01-07T05:21:07;100847.13;;;2.33;100.00
50087;BME280;35967;50.718;7.050;2024-01-07T05:31:15;100853.78;;;2.25;100.00
50087;BME280;35967;50.718;7.050;2024-01-07T05:41:18;100863.19;;;2.32;100.00
50087;BME280;35967;50.718;7.050;2024-01-07T05:51:23;100875.81;;;2.24;100.00
50087;BME280;35967;50.718;7.050;2024-01-07T06:01:27;100883.44;;;2.26;100.00
50087;BME280;35967;50.718;7.050;2024-01-07T06:11:31;100898.09;;;1.92;100.00
50087;BME280;35967;50.718;7.050;2024-01-07T06:21:34;100910.81;;;1.93;100.00
50087;BME280;35967;50.718;7.050;2024-01-07T06:31:43;100929.75;;;2.11;100.00
50087;BME280;35967;50.718;7.050;2024-01-07T06:41:47;100939.09;;;2.13;100.00
50087;BME280;35967;50.718;7.050;2024-01-07T06:51:51;100959.22;;;2.02;100.00
50087;BME280;35967;50.718;7.050;2024-01-07T07:01:54;100967.63;;;1.98;100.00
50087;BME280;35967;50.718;7.050;2024-01-07T07:12:00;100978.72;;;2.05;100.00
50087;BME280;35967;50.718;7.050;2024-01-07T07:22:03;100994.38;;;1.82;100.00
50087;BME280;35967;50.718;7.050;2024-01-07T07:32:25;101007.00;;;2.25;100.00
50087;BME280;35967;50.718;7.050;2024-01-07T07:42:30;101028.34;;;1.87;100.00
50087;BME280;35967;50.718;7.050;2024-01-07T07:52:34;101043.31;;;1.75;100.00
50087;BME280;35967;50.718;7.050;2024-01-07T08:02:37;101051.44;;;2.01;100.00
50087;BME280;35967;50.718;7.050;2024-01-07T08:12:42;101055.19;;;2.20;100.00
50087;BME280;35967;50.718;7.050;2024-01-07T08:22:45;101070.84;;;2.42;100.00
50087;BME280;35967;50.718;7.050;2024-01-07T08:32:50;101074.84;;;2.29;100.00
50087;BME280;35967;50.718;7.050;2024-01-07T08:42:53;101102.59;;;2.18;100.00
50087;BME280;35967;50.718;7.050;2024-01-07T08:52:58;101106.16;;;2.30;100.00
50087;BME280;35967;50.718;7.050;2024-01-07T09:03:05;101114.56;;;2.26;100.00
50087;BME280;35967;50.718;7.050;2024-01-07T09:13:11;101125.56;;;2.25;100.00
50087;BME280;35967;50.718;7.050;2024-01-07T09:23:14;101139.66;;;2.10;100.00
50087;BME280;35967;50.718;7.050;2024-01-07T09:33:19;101156.59;;;1.71;100.00
50087;BME280;35967;50.718;7.050;2024-01-07T09:43:25;101162.84;;;1.86;100.00
50087;BME280;35967;50.718;7.050;2024-01-07T09:53:35;101175.38;;;1.78;100.00
50087;BME280;35967;50.718;7.050;2024-01-07T10:03:39;101179.75;;;1.85;100.00
50087;BME280;35967;50.718;7.050;2024-01-07T10:13:45;101188.28;;;1.87;100.00
50087;BME280;35967;50.718;7.050;2024-01-07T10:23:50;101186.59;;;1.89;100.00
50087;BME280;35967;50.718;7.050;2024-01-07T10:33:56;101190.50;;;1.73;100.00
50087;BME280;35967;50.718;7.050;2024-01-07T10:43:59;101204.31;;;1.86;100.00
50087;BME280;35967;50.718;7.050;2024-01-07T10:54:04;101209.53;;;1.93;100.00
50087;BME280;35967;50.718;7.050;2024-01-07T11:04:14;101220.44;;;1.52;100.00
50087;BME280;35967;50.718;7.050;2024-01-07T11:14:38;101217.75;;;1.82;100.00
50087;BME280;35967;50.718;7.050;2024-01-07T11:24:42;101229.13;;;1.62;100.00
50087;BME280;35967;50.718;7.050;2024-01-07T11:34:46;101225.69;;;1.96;100.00
50087;BME280;35967;50.718;7.050;2024-01-07T11:44:55;101225.63;;;1.93;100.00
50087;BME280;35967;50.718;7.050;2024-01-07T11:55:00;101223.06;;;1.93;100.00
50087;BME280;35967;50.718;7.050;2024-01-07T12:05:03;101230.50;;;1.84;100.00
50087;BME280;35967;50.718;7.050;2024-01-07T12:15:09;101229.63;;;1.83;100.00
50087;BME280;35967;50.718;7.050;2024-01-07T12:25:13;101239.66;;;1.77;100.00
50087;BME280;35967;50.718;7.050;2024-01-07T12:35:27;101249.66;;;1.71;100.00
50087;BME280;35967;50.718;7.050;2024-01-07T12:45:31;101254.16;;;1.83;100.00
50087;BME280;35967;50.718;7.050;2024-01-07T12:55:35;101253.03;;;1.70;100.00
50087;BME280;35967;50.718;7.050;2024-01-07T13:05:39;101262.03;;;1.58;100.00
50087;BME280;35967;50.718;7.050;2024-01-07T13:15:44;101274.47;;;1.48;100.00
50087;BME280;35967;50.718;7.050;2024-01-07T13:25:47;101283.31;;;1.64;100.00
50087;BME280;35967;50.718;7.050;2024-01-07T13:35:52;101296.50;;;1.50;100.00
50087;BME280;35967;50.718;7.050;2024-01-07T13:45:55;101303.41;;;1.22;100.00
50087;BME280;35967;50.718;7.050;2024-01-07T13:55:59;101330.91;;;1.07;100.00
50087;BME280;35967;50.718;7.050;2024-01-07T14:06:04;101344.00;;;0.93;99.96
50087;BME280;35967;50.718;7.050;2024-01-07T14:16:08;101357.47;;;0.91;98.58
50087;BME280;35967;50.718;7.050;2024-01-07T14:26:12;101377.06;;;0.97;97.95
50087;BME280;35967;50.718;7.050;2024-01-07T14:36:16;101391.66;;;0.75;95.42
50087;BME280;35967;50.718;7.050;2024-01-07T14:46:20;101406.78;;;0.73;95.55
50087;BME280;35967;50.718;7.050;2024-01-07T14:56:24;101426.66;;;0.59;95.53
50087;BME280;35967;50.718;7.050;2024-01-07T15:06:27;101450.31;;;0.34;91.78
50087;BME280;35967;50.718;7.050;2024-01-07T15:16:34;101456.56;;;0.18;90.99
50087;BME280;35967;50.718;7.050;2024-01-07T15:26:37;101477.72;;;0.20;90.01
50087;BME280;35967;50.718;7.050;2024-01-07T15:36:42;101493.22;;;0.29;90.84
50087;BME280;35967;50.718;7.050;2024-01-07T15:46:45;101505.72;;;-0.01;89.97
50087;BME280;35967;50.718;7.050;2024-01-07T15:56:50;101534.56;;;-0.20;88.52
50087;BME280;35967;50.718;7.050;2024-01-07T16:06:53;101545.56;;;-0.18;87.94
50087;BME280;35967;50.718;7.050;2024-01-07T16:16:57;101570.13;;;-0.16;86.49
50087;BME280;35967;50.718;7.050;2024-01-07T16:27:01;101582.38;;;-0.26;85.30
50087;BME280;35967;50.718;7.050;2024-01-07T16:37:06;101599.25;;;-0.27;84.01
50087;BME280;35967;50.718;7.050;2024-01-07T16:47:09;101619.44;;;-0.28;81.77
50087;BME280;35967;50.718;7.050;2024-01-07T16:57:16;101620.22;;;-0.52;78.42
50087;BME280;35967;50.718;7.050;2024-01-07T17:07:19;101631.53;;;-0.65;77.00
50087;BME280;35967;50.718;7.050;2024-01-07T17:17:23;101650.88;;;-0.66;77.22
50087;BME280;35967;50.718;7.050;2024-01-07T17:27:27;101661.22;;;-0.59;77.61
50087;BME280;35967;50.718;7.050;2024-01-07T17:37:32;101675.16;;;-0.48;77.29
50087;BME280;35967;50.718;7.050;2024-01-07T17:47:37;101677.31;;;-0.57;75.70
50087;BME280;35967;50.718;7.050;2024-01-07T17:57:42;101690.78;;;-0.14;76.33
50087;BME280;35967;50.718;7.050;2024-01-07T18:07:45;101689.97;;;-0.36;75.25
50087;BME280;35967;50.718;7.050;2024-01-07T18:17:50;101698.78;;;-0.26;75.41
50087;BME280;35967;50.718;7.050;2024-01-07T18:27:53;101698.78;;;-0.26;75.50
50087;BME280;35967;50.718;7.050;2024-01-07T18:37:57;101694.50;;;-0.27;73.74
50087;BME280;35967;50.718;7.050;2024-01-07T18:48:01;101710.25;;;-0.35;73.68
50087;BME280;35967;50.718;7.050;2024-01-07T18:58:06;101723.44;;;-0.21;73.46
50087;BME280;35967;50.718;7.050;2024-01-07T19:08:10;101729.50;;;-0.17;73.20
50087;BME280;35967;50.718;7.050;2024-01-07T19:18:15;101728.88;;;-0.11;76.72
50087;BME280;35967;50.718;7.050;2024-01-07T19:28:18;101737.25;;;0.09;77.41
50087;BME280;35967;50.718;7.050;2024-01-07T19:38:23;101749.88;;;-0.14;78.65
50087;BME280;35967;50.718;7.050;2024-01-07T19:48:27;101745.19;;;-0.26;75.64
50087;BME280;35967;50.718;7.050;2024-01-07T19:58:32;101753.41;;;-0.32;71.58
50087;BME280;35967;50.718;7.050;2024-01-07T20:08:36;101755.03;;;-0.11;71.58
50087;BME280;35967;50.718;7.050;2024-01-07T20:18:42;101758.13;;;0.03;72.59
50087;BME280;35967;50.718;7.050;2024-01-07T20:28:47;101758.31;;;-0.13;72.50
50087;BME280;35967;50.718;7.050;2024-01-07T20:38:54;101768.47;;;0.09;72.85
50087;BME280;35967;50.718;7.050;2024-01-07T20:49:19;101773.13;;;-0.02;72.97
50087;BME280;35967;50.718;7.050;2024-01-07T20:59:24;101777.09;;;-0.29;68.21
50087;BME280;35967;50.718;7.050;2024-01-07T21:09:28;101777.56;;;-0.17;67.59
50087;BME280;35967;50.718;7.050;2024-01-07T21:19:32;101776.28;;;-0.07;64.99
50087;BME280;35967;50.718;7.050;2024-01-07T21:29:35;101770.50;;;-0.05;65.58
50087;BME280;35967;50.718;7.050;2024-01-07T21:39:40;101782.63;;;-0.17;66.43
50087;BME280;35967;50.718;7.050;2024-01-07T21:49:50;101783.53;;;-0.17;66.69
50087;BME280;35967;50.718;7.050;2024-01-07T21:59:55;101778.97;;;-0.03;68.62
50087;BME280;35967;50.718;7.050;2024-01-07T22:09:58;101785.59;;;-0.27;73.69
50087;BME280;35967;50.718;7.050;2024-01-07T22:20:03;101783.69;;;-0.33;77.91
50087;BME280;35967;50.718;7.050;2024-01-07T22:30:08;101795.03;;;-0.44;73.53
50087;BME280;35967;50.718;7.050;2024-01-07T22:40:13;101797.56;;;-0.64;72.58
50087;BME280;35967;50.718;7.050;2024-01-07T22:50:17;101812.69;;;-0.46;71.15
50087;BME280;35967;50.718;7.050;2024-01-07T23:00:22;101811.38;;;-0.77;72.62
50087;BME280;35967;50.718;7.050;2024-01-07T23:10:26;101819.75;;;-0.78;73.19
50087;BME280;35967;50.718;7.050;2024-01-07T23:20:43;101820.69;;;-0.96;72.71
50087;BME280;35967;50.718;7.050;2024-01-07T23:30:46;101827.47;;;-0.94;73.07
50087;BME280;35967;50.718;7.050;2024-01-07T23:40:51;101832.25;;;-1.01;73.47
50087;BME280;35967;50.718;7.050;2024-01-07T23:50:54;101843.16;;;-1.02;71.89
